Etusivu
METAR-TAF:

METAR-TAF

Lentoasemat :

St. Paul Downtown Airport (Holman Field)

Saint Paul, Minnesota, Yhdysvallat

Leveyspiiri: 44-55-49N, Pituuspiiri: 093-02-53W, korkeus merenpinnasta: 214 m

Tämänhetkinen sää

Tämä raportti tehtiin 36 minuuttia sitten, kello 11.53 UTC
Tuuli 6 kn kaakosta
Lämpötila 0°C
Kosteus 80%
Ilmanpaine 1025 hPa
Näkyvyys: 16.1 km
Muutamia pilviä 5000 ft:n korkeudessa
Pilvistä 9500 ft:n korkeudessa

METAR: KSTP 201153Z AUTO 14006KT 10SM FEW050 OVC095 00/M03 A3028 RMK AO2 SLP259 7//// T00001033 10000 21011 58002

Aika: 07:29 (12:29 UTC)


TAF: puuttuu

Säähavainnot ja -ennusteet yli 4000 lentoasemalta (METAR- ja TAF-raportit).

Käytössä olevat sääasemat on merkitty karttaan keltaisilla ja punaisilla pisteillä.

Aseta hiiri pisteen päälle nähdäksesi sääaseman nimen.

Klikkaa sitten nähdäksesi säähavainnot ja -ennusteet.

Kartan vaihtaminen: klikkaa mustalla rastilla varustettuja vihreitä pisteitä, niin voit zoomata sisään; viivalla varustettua vihreää pistettä, niin voit zoomata ulos tai vihreitä nuolia, niin pääset viereisille kartoille.


METAR-TAF: